createdAt,value
2019-05-23T00:01:20.569Z,6.50
2019-05-23T00:03:59.290Z,6.47
2019-05-23T00:06:32.549Z,6.80
2019-05-23T00:09:06.749Z,5.73
2019-05-23T00:11:45.235Z,7.70
2019-05-23T00:14:34.139Z,6.73
2019-05-23T00:17:06.362Z,7.23
2019-05-23T00:19:40.119Z,6.90
2019-05-23T00:22:12.907Z,7.27
2019-05-23T00:24:46.084Z,6.00
2019-05-23T00:27:20.076Z,7.00
2019-05-23T00:29:52.015Z,7.00
2019-05-23T00:32:37.963Z,7.07
2019-05-23T00:35:12.457Z,6.67
2019-05-23T00:37:46.462Z,5.23
2019-05-23T00:40:19.718Z,4.87
2019-05-23T00:42:53.785Z,4.70
2019-05-23T00:45:27.017Z,4.80
2019-05-23T00:48:00.495Z,4.23
2019-05-23T00:50:34.835Z,4.17
2019-05-23T00:53:07.301Z,4.40
2019-05-23T00:55:40.161Z,5.00
2019-05-23T00:58:14.626Z,4.00
2019-05-23T01:00:48.440Z,3.40
2019-05-23T01:03:22.686Z,3.87
2019-05-23T01:05:55.507Z,3.10
2019-05-23T01:08:28.243Z,3.37
2019-05-23T01:11:00.975Z,2.80
2019-05-23T01:13:33.883Z,2.63
2019-05-23T01:16:07.181Z,2.93
2019-05-23T01:18:40.177Z,3.03
2019-05-23T01:21:30.648Z,3.20
2019-05-23T01:24:25.456Z,3.10
2019-05-23T01:26:58.488Z,2.90
2019-05-23T01:29:37.754Z,3.40
2019-05-23T01:32:13.795Z,3.23
2019-05-23T01:34:46.320Z,2.73
2019-05-23T01:37:20.199Z,2.60
2019-05-23T01:39:53.074Z,2.30
2019-05-23T01:42:26.018Z,2.77
2019-05-23T01:44:58.700Z,2.20
2019-05-23T01:47:30.629Z,2.70
2019-05-23T01:50:03.455Z,2.63
2019-05-23T01:52:36.421Z,2.97
2019-05-23T01:55:08.951Z,5.10
2019-05-23T01:57:41.331Z,3.37
2019-05-23T02:00:15.804Z,3.20
2019-05-23T02:02:48.733Z,2.83
2019-05-23T02:05:21.677Z,3.40
2019-05-23T02:07:54.637Z,3.60
2019-05-23T02:10:27.843Z,3.20
2019-05-23T02:13:01.125Z,3.70
2019-05-23T02:15:33.831Z,4.70
2019-05-23T02:18:06.595Z,4.97
2019-05-23T02:20:39.366Z,6.60
2019-05-23T02:23:13.711Z,5.43
2019-05-23T02:25:46.379Z,4.90
2019-05-23T02:28:19.167Z,4.20
2019-05-23T02:30:54.322Z,3.87
2019-05-23T02:33:28.709Z,5.47
2019-05-23T02:36:01.581Z,10.17
2019-05-23T02:38:47.562Z,10.73
2019-05-23T02:41:34.955Z,11.57
2019-05-23T02:44:14.424Z,11.77
2019-05-23T02:46:55.104Z,11.40
2019-05-23T02:49:30.850Z,9.80
2019-05-23T02:52:34.959Z,11.60
2019-05-23T02:55:17.596Z,7.90
2019-05-23T02:57:52.219Z,7.50
2019-05-23T03:00:54.894Z,6.87
2019-05-23T03:03:30.262Z,6.90
2019-05-23T03:06:04.890Z,7.17
2019-05-23T03:08:37.194Z,8.47
2019-05-23T03:11:35.193Z,6.83
2019-05-23T03:14:09.329Z,5.47
2019-05-23T03:16:45.775Z,5.53
2019-05-23T03:19:39.402Z,5.80
2019-05-23T03:22:52.240Z,5.40
2019-05-23T03:26:27.156Z,5.00
2019-05-23T03:29:00.081Z,10.00
2019-05-23T03:31:39.589Z,11.90
2019-05-23T03:34:14.339Z,9.40
2019-05-23T03:36:46.591Z,6.47
2019-05-23T03:39:18.534Z,4.77
2019-05-23T03:41:50.768Z,3.60
2019-05-23T03:44:23.508Z,3.50
2019-05-23T03:46:57.764Z,3.77
2019-05-23T03:49:31.148Z,6.50
2019-05-23T03:52:04.981Z,6.43
2019-05-23T03:54:37.202Z,7.07
2019-05-23T03:57:11.509Z,6.70
2019-05-23T03:59:45.097Z,6.40
2019-05-23T04:02:19.310Z,5.40
2019-05-23T04:04:52.091Z,4.70
2019-05-23T04:07:24.890Z,4.27
2019-05-23T04:09:56.827Z,3.40
2019-05-23T04:12:29.316Z,4.37
2019-05-23T04:15:01.402Z,4.10
2019-05-23T04:17:33.392Z,4.57
2019-05-23T04:20:07.032Z,4.30
2019-05-23T04:22:38.978Z,4.67
2019-05-23T04:25:11.820Z,4.10
2019-05-23T04:27:44.790Z,4.87
2019-05-23T04:30:17.955Z,5.80
2019-05-23T04:32:50.438Z,4.83
2019-05-23T04:35:22.558Z,4.93
2019-05-23T04:37:55.111Z,4.43
2019-05-23T04:40:27.380Z,5.03
2019-05-23T04:42:59.343Z,6.50
2019-05-23T04:45:31.501Z,10.17
2019-05-23T04:48:05.048Z,11.67
2019-05-23T04:50:37.621Z,12.73
2019-05-23T04:53:09.871Z,13.43
2019-05-23T04:55:43.786Z,12.70
2019-05-23T04:58:15.997Z,9.73
2019-05-23T05:00:48.188Z,9.83
2019-05-23T05:03:20.794Z,9.47
2019-05-23T05:05:53.520Z,8.93
2019-05-23T05:08:25.870Z,7.73
2019-05-23T05:10:58.240Z,10.47
2019-05-23T05:13:30.938Z,12.43
2019-05-23T05:16:03.038Z,12.73
2019-05-23T05:18:35.232Z,14.50
2019-05-23T05:21:08.736Z,9.80
2019-05-23T05:23:40.839Z,10.03
2019-05-23T05:26:22.583Z,8.40
2019-05-23T05:28:54.670Z,9.80
2019-05-23T05:31:26.927Z,8.93
2019-05-23T05:33:59.321Z,6.13
2019-05-23T05:36:31.602Z,5.63
2019-05-23T05:39:03.971Z,5.67
2019-05-23T05:41:37.013Z,5.13
2019-05-23T05:44:11.613Z,4.50
2019-05-23T05:46:42.968Z,4.10
2019-05-23T05:49:15.821Z,4.13
2019-05-23T05:51:47.903Z,4.37
2019-05-23T05:54:20.514Z,4.90
2019-05-23T05:56:52.474Z,5.00
2019-05-23T05:59:24.457Z,5.90
2019-05-23T06:01:56.729Z,5.90
2019-05-23T06:04:28.842Z,5.57
2019-05-23T06:07:26.563Z,5.37
2019-05-23T06:10:00.234Z,5.93
2019-05-23T06:12:32.398Z,5.40
2019-05-23T06:15:04.879Z,4.97
2019-05-23T06:17:37.211Z,4.70
2019-05-23T06:20:10.975Z,5.70
2019-05-23T06:22:44.443Z,6.60
2019-05-23T06:25:16.621Z,8.83
2019-05-23T06:27:48.964Z,8.70
2019-05-23T06:30:23.830Z,8.87
2019-05-23T06:32:56.340Z,6.93
2019-05-23T06:35:28.414Z,6.37
2019-05-23T06:38:01.413Z,6.00
2019-05-23T06:40:35.041Z,5.87
2019-05-23T06:43:07.818Z,4.67
2019-05-23T06:45:42.147Z,4.87
2019-05-23T06:48:15.919Z,6.00
2019-05-23T06:50:48.428Z,7.77
2019-05-23T06:53:20.958Z,5.33
2019-05-23T06:55:53.169Z,6.13
2019-05-23T06:58:25.642Z,5.10
2019-05-23T07:00:57.902Z,4.90
2019-05-23T07:03:41.916Z,4.03
2019-05-23T07:06:04.765Z,3.93
2019-05-23T07:08:36.766Z,4.60
2019-05-23T07:11:08.713Z,4.43
2019-05-23T07:13:42.608Z,6.90
2019-05-23T07:16:14.682Z,6.87
2019-05-23T07:18:46.633Z,9.33
2019-05-23T07:21:18.597Z,7.83
2019-05-23T07:23:51.079Z,7.03
2019-05-23T07:26:23.410Z,5.37
2019-05-23T07:28:55.748Z,6.30
2019-05-23T07:31:28.074Z,6.30
2019-05-23T07:34:02.367Z,5.57
2019-05-23T07:36:34.339Z,6.20
2019-05-23T07:39:11.641Z,4.80
2019-05-23T07:41:43.353Z,5.23
2019-05-23T07:44:15.720Z,4.70
2019-05-23T07:46:47.888Z,4.40
2019-05-23T07:49:20.691Z,4.27
2019-05-23T07:51:52.716Z,4.70
2019-05-23T07:54:38.982Z,5.33
2019-05-23T07:57:13.871Z,5.33
2019-05-23T07:59:46.421Z,3.87
2019-05-23T08:02:27.226Z,3.50
2019-05-23T08:04:59.460Z,3.50
2019-05-23T08:07:32.921Z,3.90
2019-05-23T08:10:06.623Z,3.77
2019-05-23T08:12:39.003Z,3.93
2019-05-23T08:15:11.368Z,3.77
2019-05-23T08:17:43.467Z,3.80
2019-05-23T08:20:17.099Z,4.03
2019-05-23T08:22:49.573Z,5.00
2019-05-23T08:25:21.529Z,4.40
2019-05-23T08:27:53.766Z,3.60
2019-05-23T08:30:25.862Z,3.23
2019-05-23T08:32:58.102Z,3.27
2019-05-23T08:35:30.377Z,4.30
2019-05-23T08:38:03.226Z,4.47
2019-05-23T08:40:36.547Z,4.20
2019-05-23T08:43:08.881Z,4.43
2019-05-23T08:45:41.113Z,3.90
2019-05-23T08:48:13.147Z,5.77
2019-05-23T08:50:45.323Z,6.43
2019-05-23T08:53:17.315Z,8.50
2019-05-23T08:55:49.967Z,4.33
2019-05-23T08:58:22.099Z,4.33
2019-05-23T09:00:55.049Z,4.13
2019-05-23T09:03:27.109Z,3.70
2019-05-23T09:05:59.859Z,4.83
2019-05-23T09:08:34.972Z,5.20
2019-05-23T09:11:07.255Z,4.80
2019-05-23T09:13:39.320Z,5.07
2019-05-23T09:16:12.232Z,4.10
2019-05-23T09:18:44.471Z,3.93
2019-05-23T09:21:16.821Z,4.67
2019-05-23T09:23:49.022Z,4.93
2019-05-23T09:26:21.080Z,5.53
2019-05-23T09:28:53.321Z,5.77
2019-05-23T09:31:25.378Z,5.10
2019-05-23T09:33:57.293Z,6.30
2019-05-23T09:36:30.173Z,5.93
2019-05-23T09:39:02.468Z,7.90
2019-05-23T09:41:35.257Z,9.37
2019-05-23T09:44:07.842Z,8.20
2019-05-23T09:46:40.279Z,6.67
2019-05-23T09:49:12.710Z,6.30
2019-05-23T09:51:45.658Z,5.40
2019-05-23T09:54:18.989Z,6.00
2019-05-23T09:56:51.847Z,7.40
2019-05-23T09:59:25.912Z,8.93
2019-05-23T10:01:59.355Z,10.00
2019-05-23T10:04:31.473Z,10.17
2019-05-23T10:07:03.645Z,8.07
2019-05-23T10:09:40.361Z,8.60
2019-05-23T10:12:12.391Z,8.97
2019-05-23T10:14:44.443Z,10.40
2019-05-23T10:17:16.476Z,8.70
2019-05-23T10:19:48.527Z,10.33
2019-05-23T10:22:21.013Z,9.40
2019-05-23T10:24:53.098Z,10.40
2019-05-23T10:27:25.093Z,11.73
2019-05-23T10:29:57.168Z,11.00
2019-05-23T10:32:29.266Z,10.50
2019-05-23T10:35:01.405Z,9.87
2019-05-23T10:37:33.357Z,9.80
2019-05-23T10:40:07.319Z,9.00
2019-05-23T10:42:40.143Z,7.50
2019-05-23T10:45:12.105Z,6.90
2019-05-23T10:47:44.075Z,7.30
2019-05-23T10:50:17.510Z,9.17
2019-05-23T10:52:49.954Z,9.07
2019-05-23T10:55:21.883Z,9.00
2019-05-23T10:57:53.896Z,9.60
2019-05-23T11:00:29.095Z,9.13
2019-05-23T11:03:01.416Z,11.00
2019-05-23T11:05:33.616Z,11.80
2019-05-23T11:08:06.821Z,10.73
2019-05-23T11:10:38.944Z,11.17
2019-05-23T11:13:11.074Z,11.47
2019-05-23T11:15:44.017Z,12.33
2019-05-23T11:18:16.475Z,12.10
2019-05-23T11:20:48.714Z,12.83
2019-05-23T11:23:33.195Z,11.37
2019-05-23T11:26:05.668Z,10.77
2019-05-23T11:28:38.093Z,12.57
2019-05-23T11:31:10.851Z,11.80
2019-05-23T11:33:42.910Z,11.60
2019-05-23T11:36:31.751Z,13.67
2019-05-23T11:38:49.915Z,12.50
2019-05-23T11:41:22.069Z,10.50
2019-05-23T11:43:54.031Z,10.20
2019-05-23T11:46:30.157Z,8.57
2019-05-23T11:49:03.936Z,9.30
2019-05-23T11:51:36.863Z,8.13
2019-05-23T11:54:10.494Z,9.50
2019-05-23T11:56:43.048Z,11.13
2019-05-23T11:59:15.252Z,10.77
2019-05-23T12:02:09.150Z,11.63
2019-05-23T12:04:42.983Z,12.23
2019-05-23T12:07:21.933Z,14.37
2019-05-23T12:09:54.136Z,15.13
2019-05-23T12:12:26.426Z,14.37
2019-05-23T12:15:00.232Z,15.93
2019-05-23T12:17:33.762Z,12.83
2019-05-23T12:20:07.129Z,12.43
2019-05-23T12:22:39.323Z,12.63
2019-05-23T12:25:21.869Z,15.60
2019-05-23T12:27:46.585Z,18.30
2019-05-23T12:30:20.303Z,13.73
2019-05-23T12:32:55.128Z,15.90
2019-05-23T12:35:27.345Z,15.03
2019-05-23T12:38:02.430Z,16.60
2019-05-23T12:40:33.949Z,15.40
2019-05-23T12:43:06.088Z,13.63
2019-05-23T12:45:38.048Z,11.53
2019-05-23T12:48:17.983Z,14.07
2019-05-23T12:50:53.743Z,11.50
2019-05-23T12:53:24.494Z,15.83
2019-05-23T12:55:56.511Z,14.10
2019-05-23T12:58:30.335Z,12.30
2019-05-23T13:01:02.993Z,12.57
2019-05-23T13:03:35.340Z,12.37
2019-05-23T13:06:07.542Z,12.47
2019-05-23T13:08:39.763Z,12.30
2019-05-23T13:11:12.034Z,11.80
2019-05-23T13:13:44.125Z,11.90
2019-05-23T13:16:16.189Z,10.57
2019-05-23T13:18:48.179Z,12.17
2019-05-23T13:21:20.637Z,11.83
2019-05-23T13:23:52.639Z,10.80
2019-05-23T13:26:24.672Z,13.80
2019-05-23T13:28:56.721Z,12.80
2019-05-23T13:31:28.878Z,10.40
2019-05-23T13:34:01.496Z,10.57
2019-05-23T13:36:33.687Z,10.67
2019-05-23T13:39:10.595Z,9.33
2019-05-23T13:41:42.725Z,9.83
2019-05-23T13:44:32.074Z,10.90
2019-05-23T13:46:49.415Z,10.50
2019-05-23T13:49:22.165Z,10.57
2019-05-23T13:51:54.252Z,11.60
2019-05-23T13:54:26.681Z,9.17
2019-05-23T13:56:59.649Z,10.60
2019-05-23T13:59:31.905Z,10.80
2019-05-23T14:02:06.071Z,12.23
2019-05-23T14:04:38.266Z,12.50
2019-05-23T14:07:12.272Z,14.57
2019-05-23T14:09:44.462Z,16.20
2019-05-23T14:12:21.343Z,17.97
2019-05-23T14:14:50.831Z,14.83
2019-05-23T14:17:51.132Z,16.80
2019-05-23T14:20:24.391Z,16.93
2019-05-23T14:23:13.788Z,17.17
2019-05-23T14:25:47.018Z,19.73
2019-05-23T14:28:19.038Z,19.27
2019-05-23T14:31:12.953Z,17.93
2019-05-23T14:33:52.394Z,17.93
2019-05-23T14:36:43.255Z,18.93
2019-05-23T14:39:34.259Z,20.17
2019-05-23T14:42:13.382Z,17.53
2019-05-23T14:44:45.452Z,16.90
2019-05-23T14:47:41.901Z,19.43
2019-05-23T14:50:33.250Z,20.50
2019-05-23T14:53:06.416Z,16.80
2019-05-23T14:55:38.480Z,15.80
2019-05-23T14:58:11.309Z,17.17
2019-05-23T15:00:45.276Z,23.83
2019-05-23T15:03:17.893Z,21.57
2019-05-23T15:05:50.231Z,19.90
2019-05-23T15:08:22.285Z,23.53
2019-05-23T15:10:54.600Z,22.50
2019-05-23T15:13:26.729Z,27.83
2019-05-23T15:15:58.828Z,32.50
2019-05-23T15:18:31.240Z,27.97
2019-05-23T15:21:03.488Z,33.57
2019-05-23T15:23:35.555Z,25.87
2019-05-23T15:26:22.476Z,24.67
2019-05-23T15:28:41.426Z,27.37
2019-05-23T15:31:13.575Z,21.80
2019-05-23T15:33:45.809Z,23.03
2019-05-23T15:36:18.285Z,20.03
2019-05-23T15:39:06.319Z,25.13
2019-05-23T15:41:24.133Z,21.17
2019-05-23T15:43:56.235Z,18.63
2019-05-23T15:46:28.499Z,20.30
2019-05-23T15:49:01.211Z,16.70
2019-05-23T15:51:39.757Z,19.80
2019-05-23T15:54:19.551Z,19.00
2019-05-23T15:57:07.532Z,24.83
2019-05-23T15:59:48.164Z,23.83
2019-05-23T16:02:26.884Z,20.60
2019-05-23T16:05:00.785Z,21.53
2019-05-23T16:07:33.075Z,37.67
2019-05-23T16:10:05.841Z,37.30
2019-05-23T16:12:38.073Z,33.57
2019-05-23T16:15:11.345Z,29.27
2019-05-23T16:17:43.354Z,22.97
2019-05-23T16:20:15.781Z,22.13
2019-05-23T16:22:47.772Z,21.80
2019-05-23T16:25:20.336Z,23.10
2019-05-23T16:27:52.746Z,20.33
2019-05-23T16:30:25.560Z,43.67
2019-05-23T16:32:57.644Z,34.17
2019-05-23T16:35:29.676Z,27.23
2019-05-23T16:38:01.689Z,38.33
2019-05-23T16:40:33.703Z,35.77
2019-05-23T16:43:05.792Z,41.80
2019-05-23T16:45:37.820Z,34.37
2019-05-23T16:48:10.520Z,30.20
2019-05-23T16:50:42.601Z,29.57
2019-05-23T16:53:14.653Z,30.80
2019-05-23T16:55:56.414Z,26.03
2019-05-23T16:58:42.066Z,34.90
2019-05-23T17:01:54.887Z,27.60
2019-05-23T17:04:22.327Z,28.70
2019-05-23T17:06:59.883Z,34.97
2019-05-23T17:10:09.027Z,41.73
2019-05-23T17:13:07.498Z,34.97
2019-05-23T17:16:01.288Z,28.33
2019-05-23T17:18:58.198Z,31.77
2019-05-23T17:21:44.286Z,29.83
2019-05-23T17:24:33.876Z,40.63
2019-05-23T17:27:35.255Z,38.20
2019-05-23T17:30:24.681Z,34.03
2019-05-23T17:32:57.453Z,35.07
2019-05-23T17:35:29.641Z,35.83
2019-05-23T17:38:01.732Z,32.83
2019-05-23T17:40:34.417Z,33.03
2019-05-23T17:43:06.499Z,35.00
2019-05-23T17:45:38.520Z,34.43
2019-05-23T17:48:10.503Z,35.63
2019-05-23T17:50:42.994Z,33.27
2019-05-23T17:53:14.986Z,37.23
2019-05-23T17:55:47.803Z,38.93
2019-05-23T17:58:20.609Z,39.33
2019-05-23T18:00:53.252Z,36.07
2019-05-23T18:03:25.522Z,38.07
2019-05-23T18:05:58.072Z,36.27
2019-05-23T18:08:37.807Z,33.77
2019-05-23T18:11:10.652Z,37.60
2019-05-23T18:13:43.425Z,39.67
2019-05-23T18:16:16.465Z,39.73
2019-05-23T18:18:48.689Z,31.10
2019-05-23T18:21:22.597Z,30.57
2019-05-23T18:23:55.852Z,31.30
2019-05-23T18:26:27.847Z,27.80
2019-05-23T18:29:00.686Z,28.47
2019-05-23T18:31:34.527Z,31.87
2019-05-23T18:34:08.780Z,28.87
2019-05-23T18:36:41.468Z,27.67
2019-05-23T18:39:16.843Z,27.03
2019-05-23T18:41:48.841Z,26.00
2019-05-23T18:44:22.190Z,28.77
2019-05-23T18:47:12.073Z,29.00
2019-05-23T18:49:44.729Z,25.67
2019-05-23T18:52:16.703Z,24.80
2019-05-23T18:54:48.824Z,24.20
2019-05-23T18:57:21.742Z,23.67
2019-05-23T18:59:54.198Z,23.33
2019-05-23T19:02:27.122Z,27.33
2019-05-23T19:04:59.907Z,25.77
2019-05-23T19:07:49.602Z,23.20
2019-05-23T19:10:22.291Z,21.40
2019-05-23T19:12:54.404Z,21.10
2019-05-23T19:15:26.880Z,22.87
2019-05-23T19:17:59.097Z,21.87
2019-05-23T19:20:54.486Z,21.10
2019-05-23T19:23:23.218Z,20.03
2019-05-23T19:25:56.086Z,20.30
2019-05-23T19:28:28.100Z,21.17
2019-05-23T19:31:00.336Z,20.07
2019-05-23T19:33:33.299Z,21.03
2019-05-23T19:36:06.391Z,22.10
2019-05-23T19:38:56.150Z,21.23
2019-05-23T19:41:37.532Z,20.13
2019-05-23T19:44:02.613Z,20.27
2019-05-23T19:46:52.364Z,18.57
2019-05-23T19:49:27.199Z,19.43
2019-05-23T19:51:58.699Z,17.43
2019-05-23T19:54:48.616Z,17.47
2019-05-23T19:57:38.546Z,19.20
2019-05-23T20:00:14.468Z,18.50
2019-05-23T20:02:51.211Z,19.97
2019-05-23T20:05:28.158Z,19.87
2019-05-23T20:08:00.277Z,18.83
2019-05-23T20:10:33.012Z,19.53
2019-05-23T20:13:05.423Z,20.10
2019-05-23T20:15:37.556Z,20.10
2019-05-23T20:18:11.408Z,19.37
2019-05-23T20:20:43.773Z,20.93
2019-05-23T20:23:33.299Z,24.27
2019-05-23T20:26:08.247Z,23.43
2019-05-23T20:28:58.019Z,22.63
2019-05-23T20:31:30.076Z,23.53
2019-05-23T20:34:02.203Z,24.70
2019-05-23T20:36:36.018Z,25.10
2019-05-23T20:39:27.441Z,23.07
2019-05-23T20:42:17.207Z,24.17
2019-05-23T20:45:07.499Z,24.13
2019-05-23T20:47:39.715Z,22.77
2019-05-23T20:50:12.169Z,22.90
2019-05-23T20:52:44.395Z,22.20
2019-05-23T20:55:16.447Z,23.70
2019-05-23T20:57:48.568Z,21.93
2019-05-23T21:01:00.358Z,23.90
2019-05-23T21:03:52.221Z,22.30
2019-05-23T21:06:42.074Z,22.80
2019-05-23T21:09:15.955Z,23.13
2019-05-23T21:11:48.221Z,23.63
2019-05-23T21:14:20.985Z,24.53
2019-05-23T21:16:54.808Z,25.40
2019-05-23T21:19:44.586Z,23.20
2019-05-23T21:22:16.754Z,24.03
2019-05-23T21:25:08.059Z,26.13
2019-05-23T21:27:40.294Z,24.90
2019-05-23T21:30:12.510Z,24.50
2019-05-23T21:32:44.591Z,24.13
2019-05-23T21:35:16.669Z,22.23
2019-05-23T21:38:06.589Z,23.23
2019-05-23T21:40:47.423Z,21.57
2019-05-23T21:43:20.189Z,21.50
2019-05-23T21:46:27.802Z,20.40
2019-05-23T21:49:35.613Z,20.63
2019-05-23T21:52:08.529Z,20.97
2019-05-23T21:54:40.583Z,20.77
2019-05-23T21:57:30.389Z,20.60
2019-05-23T22:00:22.341Z,20.63
2019-05-23T22:02:54.336Z,19.87
2019-05-23T22:05:44.102Z,22.43
2019-05-23T22:08:33.599Z,22.80
2019-05-23T22:11:23.390Z,19.00
2019-05-23T22:14:13.380Z,19.83
2019-05-23T22:16:45.371Z,19.30
2019-05-23T22:19:18.860Z,18.40
2019-05-23T22:21:51.058Z,17.03
2019-05-23T22:24:23.279Z,18.27
2019-05-23T22:26:55.329Z,17.50
2019-05-23T22:29:45.098Z,17.03
2019-05-23T22:32:18.789Z,16.23
2019-05-23T22:35:08.443Z,17.23
2019-05-23T22:37:42.556Z,15.50
2019-05-23T22:40:15.119Z,14.83
2019-05-23T22:42:47.152Z,15.63
2019-05-23T22:45:37.967Z,15.03
2019-05-23T22:48:27.428Z,15.87
2019-05-23T22:50:59.394Z,16.33
2019-05-23T22:53:31.365Z,15.90
2019-05-23T22:56:03.327Z,15.63
2019-05-23T22:58:35.394Z,16.63
2019-05-23T23:01:07.573Z,16.27
2019-05-23T23:03:39.570Z,15.57
2019-05-23T23:06:29.479Z,15.43
2019-05-23T23:09:37.334Z,16.50
2019-05-23T23:12:27.104Z,16.30
2019-05-23T23:14:59.094Z,17.70
2019-05-23T23:17:49.020Z,17.63
2019-05-23T23:20:39.422Z,18.27
2019-05-23T23:23:29.227Z,18.00
2019-05-23T23:26:01.210Z,18.33
2019-05-23T23:28:33.563Z,19.20
2019-05-23T23:31:05.726Z,18.20
2019-05-23T23:33:37.669Z,18.30
2019-05-23T23:36:10.468Z,18.73
2019-05-23T23:39:00.312Z,18.40
2019-05-23T23:41:50.097Z,19.13
2019-05-23T23:44:38.666Z,19.90
2019-05-23T23:47:28.448Z,20.27
2019-05-23T23:50:18.560Z,23.33
2019-05-23T23:53:08.200Z,22.10
2019-05-23T23:55:58.374Z,21.90
2019-05-23T23:58:29.815Z,20.20
